createdAt,value
2018-04-30T00:00:47.421Z,36.80
2018-04-30T00:03:15.535Z,37.00
2018-04-30T00:05:45.196Z,36.60
2018-04-30T00:08:13.328Z,36.50
2018-04-30T00:10:42.220Z,36.90
2018-04-30T00:13:11.136Z,36.80
2018-04-30T00:15:39.251Z,36.80
2018-04-30T00:18:07.394Z,36.90
2018-04-30T00:20:35.519Z,37.10
2018-04-30T00:23:04.412Z,37.80
2018-04-30T00:25:33.314Z,37.80
2018-04-30T00:28:02.323Z,37.60
2018-04-30T00:30:30.474Z,37.60
2018-04-30T00:32:59.371Z,38.40
2018-04-30T00:35:28.352Z,38.50
2018-04-30T00:37:57.349Z,38.80
2018-04-30T00:40:26.242Z,38.70
2018-04-30T00:42:54.502Z,38.60
2018-04-30T00:45:23.403Z,39.70
2018-04-30T00:47:52.399Z,39.30
2018-04-30T00:50:20.558Z,39.30
2018-04-30T00:52:49.491Z,39.70
2018-04-30T00:55:18.356Z,39.90
2018-04-30T00:57:46.489Z,39.80
2018-04-30T01:00:14.685Z,39.90
2018-04-30T01:02:43.676Z,40.20
2018-04-30T01:05:12.580Z,40.30
2018-04-30T01:07:40.810Z,40.20
2018-04-30T01:10:09.007Z,40.20
2018-04-30T01:12:38.011Z,40.50
2018-04-30T01:15:06.119Z,40.30
2018-04-30T01:17:34.329Z,40.10
2018-04-30T01:20:02.456Z,40.50
2018-04-30T01:22:30.575Z,40.50
2018-04-30T01:24:58.708Z,40.60
2018-04-30T01:27:26.835Z,40.60
2018-04-30T01:29:55.839Z,40.80
2018-04-30T01:32:24.897Z,40.80
2018-04-30T01:34:53.092Z,40.80
2018-04-30T01:37:21.994Z,41.10
2018-04-30T01:39:50.115Z,41.10
2018-04-30T01:42:18.323Z,41.50
2018-04-30T01:44:47.210Z,41.60
2018-04-30T01:47:16.105Z,41.50
2018-04-30T01:49:45.023Z,41.40
2018-04-30T01:52:13.133Z,41.40
2018-04-30T01:54:41.296Z,41.60
2018-04-30T01:57:09.426Z,42.10
2018-04-30T01:59:37.542Z,42.20
2018-04-30T02:02:05.678Z,42.30
2018-04-30T02:04:33.826Z,42.90
2018-04-30T02:07:02.707Z,42.30
2018-04-30T02:09:31.596Z,42.40
2018-04-30T02:12:00.478Z,42.00
2018-04-30T02:14:29.376Z,42.70
2018-04-30T02:16:58.269Z,43.00
2018-04-30T02:19:27.259Z,42.60
2018-04-30T02:21:56.141Z,42.20
2018-04-30T02:24:25.034Z,41.80
2018-04-30T02:26:53.915Z,42.00
2018-04-30T02:29:22.804Z,42.60
2018-04-30T02:31:50.944Z,41.80
2018-04-30T02:34:19.075Z,42.10
2018-04-30T02:36:47.226Z,41.70
2018-04-30T02:39:16.115Z,41.20
2018-04-30T02:41:45.003Z,41.90
2018-04-30T02:44:13.918Z,41.70
2018-04-30T02:46:42.901Z,41.20
2018-04-30T02:49:11.786Z,40.80
2018-04-30T02:51:39.955Z,40.70
2018-04-30T02:54:08.838Z,41.20
2018-04-30T02:56:37.827Z,41.10
2018-04-30T02:59:06.831Z,41.60
2018-04-30T03:01:34.974Z,41.60
2018-04-30T03:04:03.088Z,42.00
2018-04-30T03:06:31.215Z,42.50
2018-04-30T03:08:59.343Z,42.60
2018-04-30T03:11:27.504Z,42.70
2018-04-30T03:13:55.646Z,42.70
2018-04-30T03:16:24.651Z,43.40
2018-04-30T03:18:52.787Z,43.50
2018-04-30T03:21:20.910Z,43.80
2018-04-30T03:23:49.025Z,44.20
2018-04-30T03:26:17.159Z,45.30
2018-04-30T03:28:45.307Z,46.10
2018-04-30T03:31:14.211Z,48.00
2018-04-30T03:33:42.362Z,48.00
2018-04-30T03:36:11.323Z,52.20
2018-04-30T03:38:39.482Z,52.10
2018-04-30T03:41:07.611Z,56.20
2018-04-30T03:43:35.738Z,58.90
2018-04-30T03:46:03.859Z,60.60
2018-04-30T03:48:31.995Z,62.70
2018-04-30T03:51:00.138Z,63.70
2018-04-30T03:53:28.348Z,64.30
2018-04-30T03:55:57.264Z,65.70
2018-04-30T03:58:25.388Z,65.60
2018-04-30T04:04:23.311Z,62.90
2018-04-30T04:06:52.218Z,59.50
2018-04-30T04:09:20.339Z,59.50
2018-04-30T04:11:49.993Z,57.20
2018-04-30T04:14:18.123Z,57.20
2018-04-30T04:16:46.315Z,56.70
2018-04-30T04:19:15.219Z,57.00
2018-04-30T04:21:43.371Z,56.80
2018-04-30T04:24:12.370Z,55.70
2018-04-30T04:26:41.271Z,53.70
2018-04-30T04:29:11.580Z,53.60
2018-04-30T04:31:40.474Z,50.60
2018-04-30T04:34:09.372Z,50.30
2018-04-30T04:36:37.521Z,50.20
2018-04-30T04:39:05.642Z,50.60
2018-04-30T04:41:33.817Z,48.80
2018-04-30T04:44:01.956Z,46.80
2018-04-30T04:46:30.837Z,47.20
2018-04-30T04:48:58.996Z,47.20
2018-04-30T04:51:27.103Z,47.80
2018-04-30T04:53:55.258Z,48.00
2018-04-30T04:56:23.436Z,48.40
2018-04-30T04:58:51.559Z,49.20
2018-04-30T05:01:19.700Z,49.70
2018-04-30T05:03:47.945Z,49.80
2018-04-30T05:06:16.926Z,49.60
2018-04-30T05:08:45.258Z,49.60
2018-04-30T05:11:13.378Z,49.90
2018-04-30T05:13:41.558Z,50.20
2018-04-30T05:16:10.475Z,50.80
2018-04-30T05:18:38.594Z,50.80
2018-04-30T05:21:06.728Z,51.10
2018-04-30T05:23:34.850Z,51.10
2018-04-30T05:26:03.756Z,52.30
2018-04-30T05:28:31.880Z,52.30
2018-04-30T05:31:00.108Z,52.50
2018-04-30T05:33:28.996Z,53.90
2018-04-30T05:35:57.146Z,53.90
2018-04-30T05:38:26.072Z,55.00
2018-04-30T05:40:54.204Z,55.00
2018-04-30T05:43:23.194Z,55.20
2018-04-30T05:45:52.194Z,55.50
2018-04-30T05:48:20.364Z,55.40
2018-04-30T05:50:49.351Z,56.10
2018-04-30T05:53:18.233Z,56.40
2018-04-30T05:55:47.135Z,56.90
2018-04-30T05:58:16.121Z,56.90
2018-04-30T06:00:45.045Z,57.10
2018-04-30T06:03:13.192Z,57.10
2018-04-30T06:05:41.310Z,57.50
2018-04-30T06:08:09.476Z,58.10
2018-04-30T06:10:37.686Z,59.10
2018-04-30T06:13:05.827Z,59.60
2018-04-30T06:15:33.952Z,60.10
2018-04-30T06:18:02.093Z,61.00
2018-04-30T06:20:30.300Z,62.40
2018-04-30T06:22:58.430Z,62.90
2018-04-30T06:25:26.567Z,64.60
2018-04-30T06:27:54.705Z,64.40
2018-04-30T06:30:23.703Z,66.70
2018-04-30T06:32:52.608Z,67.20
2018-04-30T06:35:21.470Z,68.50
2018-04-30T06:37:50.509Z,69.00
2018-04-30T06:40:18.613Z,69.00
2018-04-30T06:42:46.758Z,70.00
2018-04-30T06:45:14.982Z,70.70
2018-04-30T06:47:43.877Z,70.70
2018-04-30T06:50:12.021Z,70.70
2018-04-30T06:52:40.134Z,70.60
2018-04-30T06:55:08.276Z,71.00
2018-04-30T06:57:37.289Z,71.10
2018-04-30T07:00:06.201Z,70.80
2018-04-30T07:02:34.388Z,70.80
2018-04-30T07:05:03.468Z,69.60
2018-04-30T07:07:31.672Z,71.00
2018-04-30T07:10:01.620Z,69.50
2018-04-30T07:12:30.531Z,69.00
2018-04-30T07:14:58.672Z,68.90
2018-04-30T07:17:27.567Z,69.00
2018-04-30T07:19:56.496Z,69.20
2018-04-30T07:22:24.698Z,69.20
2018-04-30T07:24:52.837Z,68.60
2018-04-30T07:27:20.963Z,68.50
2018-04-30T07:29:49.866Z,67.30
2018-04-30T07:32:18.779Z,67.90
2018-04-30T07:34:46.952Z,67.90
2018-04-30T07:37:15.099Z,67.20
2018-04-30T07:39:44.150Z,65.50
2018-04-30T07:42:12.435Z,65.50
2018-04-30T07:44:41.440Z,66.30
2018-04-30T07:47:10.393Z,63.20
2018-04-30T07:49:38.552Z,63.20
2018-04-30T07:52:06.702Z,63.10
2018-04-30T07:54:35.629Z,61.50
2018-04-30T07:57:03.799Z,61.60
2018-04-30T07:59:31.935Z,63.60
2018-04-30T08:02:01.024Z,60.70
2018-04-30T08:04:29.079Z,60.80
2018-04-30T08:06:57.163Z,59.60
2018-04-30T08:09:26.159Z,56.60
2018-04-30T08:11:55.062Z,57.50
2018-04-30T08:14:23.199Z,57.50
2018-04-30T08:16:52.102Z,56.20
2018-04-30T08:19:21.046Z,57.30
2018-04-30T08:21:49.175Z,57.30
2018-04-30T08:24:18.155Z,55.00
2018-04-30T08:26:47.188Z,55.10
2018-04-30T08:29:15.321Z,55.20
2018-04-30T08:31:44.256Z,55.00
2018-04-30T08:34:12.385Z,55.00
2018-04-30T08:36:40.609Z,54.70
2018-04-30T08:39:08.636Z,55.30
2018-04-30T08:41:36.767Z,56.00
2018-04-30T08:44:06.497Z,54.60
2018-04-30T08:46:35.392Z,55.10
2018-04-30T08:49:04.414Z,54.50
2018-04-30T08:51:32.564Z,54.40
2018-04-30T08:54:01.454Z,52.10
2018-04-30T08:56:29.598Z,52.10
2018-04-30T08:58:58.522Z,53.80
2018-04-30T09:01:27.488Z,54.60
2018-04-30T09:03:56.395Z,54.20
2018-04-30T09:06:24.590Z,54.10
2018-04-30T09:08:52.701Z,54.40
2018-04-30T09:11:20.856Z,53.80
2018-04-30T09:13:48.987Z,53.10
2018-04-30T09:16:17.130Z,53.70
2018-04-30T09:18:45.443Z,53.40
2018-04-30T09:21:14.401Z,54.30
2018-04-30T09:23:43.320Z,52.70
2018-04-30T09:26:12.226Z,52.60
2018-04-30T09:28:40.360Z,52.50
2018-04-30T09:31:09.243Z,49.50
2018-04-30T09:33:38.151Z,49.80
2018-04-30T09:36:07.048Z,50.90
2018-04-30T09:38:35.949Z,51.00
2018-04-30T09:41:04.059Z,50.90
2018-04-30T09:43:32.208Z,50.70
2018-04-30T09:46:00.332Z,50.60
2018-04-30T09:48:29.324Z,50.90
2018-04-30T09:50:58.236Z,49.80
2018-04-30T09:53:26.407Z,49.80
2018-04-30T09:55:54.560Z,49.80
2018-04-30T09:58:23.461Z,49.10
2018-04-30T10:00:52.359Z,48.80
2018-04-30T10:03:21.259Z,48.80
2018-04-30T10:05:49.399Z,48.80
2018-04-30T10:08:18.310Z,49.10
2018-04-30T10:10:46.504Z,48.40
2018-04-30T10:13:14.648Z,48.30
2018-04-30T10:15:43.563Z,47.10
2018-04-30T10:18:11.690Z,47.10
2018-04-30T10:20:40.584Z,46.70
2018-04-30T10:23:09.491Z,47.20
2018-04-30T10:25:37.688Z,47.10
2018-04-30T10:28:05.820Z,47.30
2018-04-30T10:30:34.724Z,47.10
2018-04-30T10:33:02.881Z,47.10
2018-04-30T10:35:31.783Z,47.80
2018-04-30T10:37:59.969Z,47.80
2018-04-30T10:40:28.049Z,46.90
2018-04-30T10:42:56.170Z,48.00
2018-04-30T10:45:24.326Z,46.80
2018-04-30T10:47:52.466Z,46.20
2018-04-30T10:50:20.594Z,44.00
2018-04-30T10:52:49.600Z,42.80
2018-04-30T10:55:17.749Z,42.80
2018-04-30T10:57:46.668Z,42.40
2018-04-30T11:00:14.833Z,42.30
2018-04-30T11:02:43.005Z,41.20
2018-04-30T11:05:11.124Z,40.90
2018-04-30T11:07:39.246Z,41.10
2018-04-30T11:10:08.157Z,40.40
2018-04-30T11:12:36.337Z,40.30
2018-04-30T11:15:04.453Z,40.60
2018-04-30T11:17:32.664Z,39.90
2018-04-30T11:20:00.821Z,40.80
2018-04-30T11:22:28.945Z,41.40
2018-04-30T11:24:57.209Z,41.80
2018-04-30T11:27:25.339Z,41.20
2018-04-30T11:29:53.515Z,41.80
2018-04-30T11:32:21.626Z,41.90
2018-04-30T11:34:49.763Z,41.80
2018-04-30T11:37:18.878Z,40.80
2018-04-30T11:39:47.025Z,40.80
2018-04-30T11:42:15.287Z,41.50
2018-04-30T11:44:43.443Z,41.60
2018-04-30T11:47:11.661Z,41.60
2018-04-30T11:49:39.748Z,41.70
2018-04-30T11:52:07.903Z,42.00
2018-04-30T11:54:36.064Z,42.30
2018-04-30T11:57:04.356Z,43.70
2018-04-30T11:59:32.471Z,43.20
2018-04-30T12:02:00.621Z,41.60
2018-04-30T12:04:28.814Z,40.60
2018-04-30T12:06:58.595Z,39.60
2018-04-30T12:09:26.812Z,39.60
2018-04-30T12:11:55.722Z,39.70
2018-04-30T12:14:23.932Z,39.70
2018-04-30T12:16:52.056Z,39.10
2018-04-30T12:19:20.978Z,38.20
2018-04-30T12:21:49.150Z,38.20
2018-04-30T12:24:17.255Z,38.30
2018-04-30T12:26:45.481Z,38.80
2018-04-30T12:29:14.381Z,40.90
2018-04-30T12:31:43.343Z,39.00
2018-04-30T12:34:12.278Z,37.30
2018-04-30T12:36:40.507Z,37.20
2018-04-30T12:39:09.390Z,37.10
2018-04-30T12:41:37.585Z,37.00
2018-04-30T12:44:05.749Z,37.60
2018-04-30T12:46:33.879Z,36.40
2018-04-30T12:49:02.027Z,36.40
2018-04-30T12:51:30.183Z,37.30
2018-04-30T12:53:58.414Z,37.00
2018-04-30T12:56:26.637Z,37.30
2018-04-30T12:58:54.795Z,37.50
2018-04-30T13:01:22.977Z,37.00
2018-04-30T13:03:51.216Z,37.50
2018-04-30T13:06:19.606Z,38.00
2018-04-30T13:08:48.559Z,35.80
2018-04-30T13:11:16.684Z,35.70
2018-04-30T13:13:44.835Z,34.50
2018-04-30T13:16:13.748Z,34.60
2018-04-30T13:18:42.057Z,34.50
2018-04-30T13:21:10.355Z,35.60
2018-04-30T13:23:38.513Z,35.10
2018-04-30T13:26:06.657Z,34.70
2018-04-30T13:28:34.971Z,35.10
2018-04-30T13:31:03.100Z,35.30
2018-04-30T13:33:31.255Z,35.40
2018-04-30T13:36:01.049Z,34.30
2018-04-30T13:38:29.956Z,33.90
2018-04-30T13:40:58.970Z,35.10
2018-04-30T13:43:28.441Z,34.90
2018-04-30T13:45:57.351Z,35.50
2018-04-30T13:48:26.235Z,36.20
2018-04-30T13:50:54.381Z,36.30
2018-04-30T13:53:22.668Z,34.90
2018-04-30T13:55:51.542Z,36.50
2018-04-30T13:58:20.436Z,34.30
2018-04-30T14:00:49.372Z,32.50
2018-04-30T14:03:17.539Z,32.50
2018-04-30T14:05:45.687Z,32.30
2018-04-30T14:08:13.886Z,33.50
2018-04-30T14:10:42.043Z,32.60
2018-04-30T14:13:10.201Z,32.10
2018-04-30T14:15:39.107Z,32.30
2018-04-30T14:18:07.269Z,32.20
2018-04-30T14:20:36.182Z,28.50
2018-04-30T14:23:04.315Z,28.40
2018-04-30T14:25:33.361Z,26.90
2018-04-30T14:28:01.612Z,26.80
2018-04-30T14:30:30.499Z,24.90
2018-04-30T14:32:58.699Z,24.90
2018-04-30T14:35:26.877Z,25.10
2018-04-30T14:37:55.031Z,26.60
2018-04-30T14:40:23.324Z,27.40
2018-04-30T14:42:51.440Z,28.80
2018-04-30T14:45:19.700Z,31.10
2018-04-30T14:47:47.928Z,28.90
2018-04-30T14:50:16.300Z,28.70
2018-04-30T14:52:44.411Z,28.60
2018-04-30T14:55:14.054Z,29.60
2018-04-30T14:57:42.208Z,29.60
2018-04-30T15:00:11.132Z,30.20
2018-04-30T15:02:39.371Z,29.90
2018-04-30T15:05:07.555Z,28.70
2018-04-30T15:07:36.519Z,24.20
2018-04-30T15:10:05.585Z,24.00
2018-04-30T15:12:33.730Z,23.90
2018-04-30T15:15:01.940Z,24.70
2018-04-30T15:17:30.153Z,25.90
2018-04-30T15:19:59.073Z,27.10
2018-04-30T15:22:27.203Z,27.10
2018-04-30T15:24:56.092Z,28.30
2018-04-30T15:27:25.129Z,28.10
2018-04-30T15:29:53.989Z,28.00
2018-04-30T15:32:22.909Z,27.40
2018-04-30T15:34:51.026Z,27.40
2018-04-30T15:37:19.160Z,27.10
2018-04-30T15:39:47.320Z,26.60
2018-04-30T15:42:15.467Z,24.70
2018-04-30T15:44:44.393Z,24.40
2018-04-30T15:47:12.536Z,24.30
2018-04-30T15:49:40.728Z,25.70
2018-04-30T15:52:09.037Z,26.60
2018-04-30T15:54:37.219Z,27.10
2018-04-30T15:57:05.356Z,28.20
2018-04-30T15:59:33.519Z,30.40
2018-04-30T16:02:01.659Z,30.70
2018-04-30T16:04:30.550Z,30.10
2018-04-30T16:06:59.496Z,30.50
2018-04-30T16:09:29.182Z,30.40
2018-04-30T16:11:57.291Z,30.70
2018-04-30T16:14:25.464Z,31.10
2018-04-30T16:16:53.627Z,31.60
2018-04-30T16:19:23.358Z,33.60
2018-04-30T16:21:51.575Z,33.50
2018-04-30T16:24:19.729Z,33.90
2018-04-30T16:26:47.876Z,34.10
2018-04-30T16:29:16.017Z,34.70
2018-04-30T16:31:44.152Z,35.10
2018-04-30T16:34:12.335Z,35.80
2018-04-30T16:36:40.457Z,36.30
2018-04-30T16:39:08.580Z,34.60
2018-04-30T16:41:36.833Z,35.30
2018-04-30T16:44:05.815Z,35.70
2018-04-30T16:46:34.737Z,35.20
2018-04-30T16:49:02.862Z,35.10
2018-04-30T16:51:31.028Z,36.00
2018-04-30T16:54:00.660Z,38.20
2018-04-30T16:56:28.825Z,38.10
2018-04-30T16:58:57.718Z,37.50
2018-04-30T17:01:26.633Z,40.50
2018-04-30T17:03:54.909Z,40.40
2018-04-30T17:06:23.711Z,48.50
2018-04-30T17:08:51.837Z,48.30
2018-04-30T17:11:20.900Z,55.50
2018-04-30T17:13:49.134Z,55.30
2018-04-30T17:16:17.324Z,57.40
2018-04-30T17:18:45.694Z,59.20
2018-04-30T17:21:13.838Z,60.10
2018-04-30T17:23:42.731Z,66.70
2018-04-30T17:26:10.940Z,66.50
2018-04-30T17:28:39.100Z,69.70
2018-04-30T17:31:07.249Z,69.00
2018-04-30T17:33:35.443Z,68.60
2018-04-30T17:36:03.599Z,70.20
2018-04-30T17:38:32.486Z,73.40
2018-04-30T17:41:00.688Z,73.30
2018-04-30T17:43:29.531Z,75.00
2018-04-30T17:45:58.522Z,74.40
2018-04-30T17:48:27.414Z,74.10
2018-04-30T17:50:58.437Z,74.70
2018-04-30T17:53:27.723Z,71.80
2018-04-30T17:55:55.859Z,74.80
2018-04-30T17:58:24.021Z,75.60
2018-04-30T18:00:52.140Z,74.90
2018-04-30T18:03:20.372Z,73.30
2018-04-30T18:05:48.718Z,72.50
2018-04-30T18:08:18.427Z,76.50
2018-04-30T18:10:47.359Z,76.90
2018-04-30T18:13:15.489Z,76.80
2018-04-30T18:15:43.641Z,76.80
2018-04-30T18:18:12.552Z,69.60
2018-04-30T18:20:41.465Z,67.70
2018-04-30T18:23:09.607Z,67.70
2018-04-30T18:25:38.563Z,64.20
2018-04-30T18:28:06.727Z,64.10
2018-04-30T18:30:34.959Z,66.00
2018-04-30T18:33:04.053Z,67.20
2018-04-30T18:35:32.191Z,67.10
2018-04-30T18:38:01.133Z,67.60
2018-04-30T18:40:29.293Z,67.40
2018-04-30T18:42:58.177Z,68.20
2018-04-30T18:45:26.368Z,68.00
2018-04-30T18:47:54.515Z,68.50
2018-04-30T18:50:22.679Z,70.20
2018-04-30T18:52:50.851Z,68.90
2018-04-30T18:55:19.736Z,69.20
2018-04-30T18:57:47.894Z,69.20
2018-04-30T19:00:16.072Z,71.20
2018-04-30T19:02:45.019Z,71.40
2018-04-30T19:05:13.156Z,71.40
2018-04-30T19:07:41.328Z,72.80
2018-04-30T19:10:09.464Z,72.30
2018-04-30T19:12:37.607Z,71.30
2018-04-30T19:15:06.524Z,77.90
2018-04-30T19:17:34.700Z,77.90
2018-04-30T19:20:02.844Z,78.40
2018-04-30T19:22:31.017Z,79.50
2018-04-30T19:24:59.204Z,79.20
2018-04-30T19:27:27.444Z,78.40
2018-04-30T19:29:56.840Z,78.20
2018-04-30T19:32:25.063Z,78.10
2018-04-30T19:34:53.195Z,79.30
2018-04-30T19:37:21.354Z,78.50
2018-04-30T19:39:49.499Z,79.30
2018-04-30T19:42:18.457Z,75.70
2018-04-30T19:44:46.681Z,75.60
2018-04-30T19:47:15.592Z,77.10
2018-04-30T19:49:43.765Z,77.10
2018-04-30T19:52:12.065Z,77.00
2018-04-30T19:54:40.237Z,77.30
2018-04-30T19:57:08.398Z,78.10
2018-04-30T19:59:36.548Z,76.60
2018-04-30T20:02:05.026Z,73.90
2018-04-30T20:04:33.173Z,75.40
2018-04-30T20:07:02.100Z,79.90
2018-04-30T20:09:30.260Z,79.90
2018-04-30T20:11:58.507Z,79.80
2018-04-30T20:14:27.434Z,80.90
2018-04-30T20:16:55.604Z,81.50
2018-04-30T20:19:23.871Z,81.00
2018-04-30T20:21:51.980Z,80.70
2018-04-30T20:24:20.349Z,81.30
2018-04-30T20:26:48.901Z,81.20
2018-04-30T20:29:17.010Z,81.60
2018-04-30T20:31:45.183Z,79.30
2018-04-30T20:34:13.332Z,79.00
2018-04-30T20:36:41.571Z,79.70
2018-04-30T20:39:09.713Z,81.20
2018-04-30T20:41:37.830Z,81.50
2018-04-30T20:44:05.981Z,82.30
2018-04-30T20:46:34.133Z,82.90
2018-04-30T20:49:02.307Z,82.70
2018-04-30T20:51:31.225Z,81.90
2018-04-30T20:53:59.338Z,82.30
2018-04-30T20:56:27.496Z,81.20
2018-04-30T20:58:55.644Z,76.70
2018-04-30T21:01:23.818Z,75.10
2018-04-30T21:03:51.968Z,77.60
2018-04-30T21:06:20.897Z,78.90
2018-04-30T21:09:00.888Z,78.90
2018-04-30T21:11:29.294Z,79.80
2018-04-30T21:13:57.426Z,80.40
2018-04-30T21:16:25.578Z,79.60
2018-04-30T21:18:53.786Z,79.60
2018-04-30T21:21:22.791Z,79.40
2018-04-30T21:23:51.707Z,76.90
2018-04-30T21:26:20.261Z,76.90
2018-04-30T21:28:48.478Z,74.90
2018-04-30T21:31:16.610Z,72.30
2018-04-30T21:33:44.831Z,72.20
2018-04-30T21:36:12.994Z,73.60
2018-04-30T21:38:41.140Z,76.90
2018-04-30T21:41:09.290Z,77.20
2018-04-30T21:43:38.191Z,75.50
2018-04-30T21:46:06.311Z,75.50
2018-04-30T21:48:34.486Z,77.20
2018-04-30T21:51:02.637Z,79.80
2018-04-30T21:53:30.751Z,80.70
2018-04-30T21:55:59.770Z,80.30
2018-04-30T21:58:28.783Z,80.00
2018-04-30T22:00:57.015Z,80.00
2018-04-30T22:03:25.953Z,78.80
2018-04-30T22:05:54.196Z,78.70
2018-04-30T22:08:22.365Z,78.50
2018-04-30T22:10:50.537Z,78.40
2018-04-30T22:13:19.462Z,77.50
2018-04-30T22:15:47.597Z,77.50
2018-04-30T22:18:15.859Z,77.40
2018-04-30T22:20:44.743Z,77.30
2018-04-30T22:23:13.637Z,78.20
2018-04-30T22:25:42.636Z,78.00
2018-04-30T22:28:10.802Z,77.90
2018-04-30T22:30:39.808Z,77.00
2018-04-30T22:33:08.727Z,76.40
2018-04-30T22:35:36.901Z,76.40
2018-04-30T22:38:05.040Z,76.00
2018-04-30T22:40:33.160Z,76.20
2018-04-30T22:43:01.346Z,76.00
2018-04-30T22:45:29.543Z,75.80
2018-04-30T22:47:57.714Z,76.10
2018-04-30T22:50:26.712Z,76.50
2018-04-30T22:52:55.702Z,77.50
2018-04-30T22:55:24.616Z,77.60
2018-04-30T22:57:52.750Z,77.50
2018-04-30T23:00:21.699Z,77.00
2018-04-30T23:02:49.854Z,77.30
2018-04-30T23:05:18.848Z,77.40
2018-04-30T23:07:47.083Z,78.10
2018-04-30T23:10:15.974Z,78.50
2018-04-30T23:12:44.865Z,78.20
2018-04-30T23:15:13.850Z,78.80
2018-04-30T23:17:42.764Z,78.60
2018-04-30T23:20:10.929Z,78.60
2018-04-30T23:22:39.069Z,79.00
2018-04-30T23:25:07.260Z,79.70
2018-04-30T23:27:36.152Z,79.70
2018-04-30T23:30:05.049Z,80.60
2018-04-30T23:32:33.207Z,80.50
2018-04-30T23:35:02.115Z,79.10
2018-04-30T23:37:30.285Z,79.00
2018-04-30T23:39:58.446Z,79.00
2018-04-30T23:42:27.436Z,78.30
2018-04-30T23:44:56.355Z,78.70
2018-04-30T23:47:24.501Z,78.70
2018-04-30T23:49:52.668Z,79.10
2018-04-30T23:52:21.671Z,80.00
2018-04-30T23:54:49.795Z,80.00
2018-04-30T23:57:18.014Z,80.70
2018-04-30T23:59:46.911Z,80.60
